sensor_id;sensor_type;location;lat;lon;timestamp;temperature;humidity
26990;DHT22;14537;47.788;11.858;2023-04-03T00:01:07;1.40;99.90
26990;DHT22;14537;47.788;11.858;2023-04-03T00:03:33;1.40;99.90
26990;DHT22;14537;47.788;11.858;2023-04-03T00:05:59;1.40;99.90
26990;DHT22;14537;47.788;11.858;2023-04-03T00:08:25;1.50;99.90
26990;DHT22;14537;47.788;11.858;2023-04-03T00:10:50;1.30;99.90
26990;DHT22;14537;47.788;11.858;2023-04-03T00:13:16;1.40;99.90
26990;DHT22;14537;47.788;11.858;2023-04-03T00:15:42;1.40;99.90
26990;DHT22;14537;47.788;11.858;2023-04-03T00:18:08;1.50;99.90
26990;DHT22;14537;47.788;11.858;2023-04-03T00:20:34;1.30;99.90
26990;DHT22;14537;47.788;11.858;2023-04-03T00:23:01;1.40;99.90
26990;DHT22;14537;47.788;11.858;2023-04-03T00:25:27;1.40;99.90
26990;DHT22;14537;47.788;11.858;2023-04-03T00:27:53;1.50;99.90
26990;DHT22;14537;47.788;11.858;2023-04-03T00:30:21;1.40;99.90
26990;DHT22;14537;47.788;11.858;2023-04-03T00:32:50;1.50;99.90
26990;DHT22;14537;47.788;11.858;2023-04-03T00:35:16;1.50;99.90
26990;DHT22;14537;47.788;11.858;2023-04-03T00:37:43;1.30;99.90
26990;DHT22;14537;47.788;11.858;2023-04-03T00:40:09;1.30;99.90
26990;DHT22;14537;47.788;11.858;2023-04-03T00:42:40;1.40;99.90
26990;DHT22;14537;47.788;11.858;2023-04-03T00:47:32;1.40;99.90
26990;DHT22;14537;47.788;11.858;2023-04-03T00:49:58;1.40;99.90
26990;DHT22;14537;47.788;11.858;2023-04-03T00:52:28;1.50;99.90
26990;DHT22;14537;47.788;11.858;2023-04-03T00:54:57;1.40;99.90
26990;DHT22;14537;47.788;11.858;2023-04-03T00:57:23;1.40;99.90
26990;DHT22;14537;47.788;11.858;2023-04-03T00:59:54;1.40;99.90
26990;DHT22;14537;47.788;11.858;2023-04-03T01:02:20;1.50;99.90
26990;DHT22;14537;47.788;11.858;2023-04-03T01:04:46;1.50;99.90
26990;DHT22;14537;47.788;11.858;2023-04-03T01:07:18;1.50;99.90
26990;DHT22;14537;47.788;11.858;2023-04-03T01:09:45;1.50;99.90
26990;DHT22;14537;47.788;11.858;2023-04-03T01:12:24;1.50;99.90
26990;DHT22;14537;47.788;11.858;2023-04-03T01:14:56;1.50;99.90
26990;DHT22;14537;47.788;11.858;2023-04-03T01:17:37;1.50;99.90
26990;DHT22;14537;47.788;11.858;2023-04-03T01:20:44;1.50;99.90
26990;DHT22;14537;47.788;11.858;2023-04-03T01:26:04;1.40;99.90
26990;DHT22;14537;47.788;11.858;2023-04-03T01:28:33;1.60;99.90
26990;DHT22;14537;47.788;11.858;2023-04-03T01:31:06;1.50;99.90
26990;DHT22;14537;47.788;11.858;2023-04-03T01:33:36;1.50;99.90
26990;DHT22;14537;47.788;11.858;2023-04-03T01:36:03;1.50;99.90
26990;DHT22;14537;47.788;11.858;2023-04-03T01:38:29;1.60;99.90
26990;DHT22;14537;47.788;11.858;2023-04-03T01:40:54;1.60;99.90
26990;DHT22;14537;47.788;11.858;2023-04-03T01:43:20;1.60;99.90
26990;DHT22;14537;47.788;11.858;2023-04-03T01:45:45;1.60;99.90
26990;DHT22;14537;47.788;11.858;2023-04-03T01:48:12;1.50;99.90
26990;DHT22;14537;47.788;11.858;2023-04-03T01:50:39;1.60;99.90
26990;DHT22;14537;47.788;11.858;2023-04-03T01:53:04;1.60;99.90
26990;DHT22;14537;47.788;11.858;2023-04-03T01:55:30;1.50;99.90
26990;DHT22;14537;47.788;11.858;2023-04-03T01:57:55;1.40;99.90
26990;DHT22;14537;47.788;11.858;2023-04-03T02:00:21;1.40;99.90
26990;DHT22;14537;47.788;11.858;2023-04-03T02:02:47;1.50;99.90
26990;DHT22;14537;47.788;11.858;2023-04-03T02:05:12;1.40;99.90
26990;DHT22;14537;47.788;11.858;2023-04-03T02:07:38;1.50;99.90
26990;DHT22;14537;47.788;11.858;2023-04-03T02:10:04;1.40;99.90
26990;DHT22;14537;47.788;11.858;2023-04-03T02:12:30;1.40;99.90
26990;DHT22;14537;47.788;11.858;2023-04-03T02:14:55;1.40;99.90
26990;DHT22;14537;47.788;11.858;2023-04-03T02:17:21;1.50;99.90
26990;DHT22;14537;47.788;11.858;2023-04-03T02:19:47;1.40;99.90
26990;DHT22;14537;47.788;11.858;2023-04-03T02:22:12;1.40;99.90
26990;DHT22;14537;47.788;11.858;2023-04-03T02:24:38;1.50;99.90
26990;DHT22;14537;47.788;11.858;2023-04-03T02:27:05;1.50;99.90
26990;DHT22;14537;47.788;11.858;2023-04-03T02:29:31;1.50;99.90
26990;DHT22;14537;47.788;11.858;2023-04-03T02:31:56;1.50;99.90
26990;DHT22;14537;47.788;11.858;2023-04-03T02:34:22;1.50;99.90
26990;DHT22;14537;47.788;11.858;2023-04-03T02:36:48;1.50;99.90
26990;DHT22;14537;47.788;11.858;2023-04-03T02:39:13;1.50;99.90
26990;DHT22;14537;47.788;11.858;2023-04-03T02:41:39;1.40;99.90
26990;DHT22;14537;47.788;11.858;2023-04-03T02:44:06;1.40;99.90
26990;DHT22;14537;47.788;11.858;2023-04-03T02:46:32;1.30;99.90
26990;DHT22;14537;47.788;11.858;2023-04-03T02:48:58;1.30;99.90
26990;DHT22;14537;47.788;11.858;2023-04-03T02:51:24;1.30;99.90
26990;DHT22;14537;47.788;11.858;2023-04-03T02:53:50;1.30;99.90
26990;DHT22;14537;47.788;11.858;2023-04-03T02:56:16;1.30;99.90
26990;DHT22;14537;47.788;11.858;2023-04-03T02:58:42;1.30;99.90
26990;DHT22;14537;47.788;11.858;2023-04-03T03:01:08;1.30;99.90
26990;DHT22;14537;47.788;11.858;2023-04-03T03:03:34;1.20;99.90
26990;DHT22;14537;47.788;11.858;2023-04-03T03:06:10;1.30;99.90
26990;DHT22;14537;47.788;11.858;2023-04-03T03:08:36;1.30;99.90
26990;DHT22;14537;47.788;11.858;2023-04-03T03:11:03;1.30;99.90
26990;DHT22;14537;47.788;11.858;2023-04-03T03:13:29;1.20;99.90
26990;DHT22;14537;47.788;11.858;2023-04-03T03:15:55;1.20;99.90
26990;DHT22;14537;47.788;11.858;2023-04-03T03:18:21;1.20;99.90
26990;DHT22;14537;47.788;11.858;2023-04-03T03:20:51;1.30;99.90
26990;DHT22;14537;47.788;11.858;2023-04-03T03:23:17;1.30;99.90
26990;DHT22;14537;47.788;11.858;2023-04-03T03:25:43;1.30;99.90
26990;DHT22;14537;47.788;11.858;2023-04-03T03:28:08;1.30;99.90
26990;DHT22;14537;47.788;11.858;2023-04-03T03:30:34;1.30;99.90
26990;DHT22;14537;47.788;11.858;2023-04-03T03:33:00;1.30;99.90
26990;DHT22;14537;47.788;11.858;2023-04-03T03:35:26;1.40;99.90
26990;DHT22;14537;47.788;11.858;2023-04-03T03:37:52;1.30;99.90
26990;DHT22;14537;47.788;11.858;2023-04-03T03:40:18;1.30;99.90
26990;DHT22;14537;47.788;11.858;2023-04-03T03:42:43;1.40;99.90
26990;DHT22;14537;47.788;11.858;2023-04-03T03:45:09;1.30;99.90
26990;DHT22;14537;47.788;11.858;2023-04-03T03:47:35;1.30;99.90
26990;DHT22;14537;47.788;11.858;2023-04-03T03:50:01;1.30;99.90
26990;DHT22;14537;47.788;11.858;2023-04-03T03:52:27;1.30;99.90
26990;DHT22;14537;47.788;11.858;2023-04-03T03:54:52;1.30;99.90
26990;DHT22;14537;47.788;11.858;2023-04-03T03:57:18;1.30;99.90
26990;DHT22;14537;47.788;11.858;2023-04-03T03:59:44;1.30;99.90
26990;DHT22;14537;47.788;11.858;2023-04-03T04:02:10;1.30;99.90
26990;DHT22;14537;47.788;11.858;2023-04-03T04:04:36;1.30;99.90
26990;DHT22;14537;47.788;11.858;2023-04-03T04:07:03;1.30;99.90
26990;DHT22;14537;47.788;11.858;2023-04-03T04:09:28;1.20;99.90
26990;DHT22;14537;47.788;11.858;2023-04-03T04:11:54;1.20;99.90
26990;DHT22;14537;47.788;11.858;2023-04-03T04:14:20;1.30;99.90
26990;DHT22;14537;47.788;11.858;2023-04-03T04:16:46;1.30;99.90
26990;DHT22;14537;47.788;11.858;2023-04-03T04:19:13;1.20;99.90
26990;DHT22;14537;47.788;11.858;2023-04-03T04:21:38;1.20;99.90
26990;DHT22;14537;47.788;11.858;2023-04-03T04:24:05;1.30;99.90
26990;DHT22;14537;47.788;11.858;2023-04-03T04:26:31;1.30;99.90
26990;DHT22;14537;47.788;11.858;2023-04-03T04:28:56;1.30;99.90
26990;DHT22;14537;47.788;11.858;2023-04-03T04:31:22;1.30;99.90
26990;DHT22;14537;47.788;11.858;2023-04-03T04:33:47;1.20;99.90
26990;DHT22;14537;47.788;11.858;2023-04-03T04:36:13;1.20;99.90
26990;DHT22;14537;47.788;11.858;2023-04-03T04:38:40;1.20;99.90
26990;DHT22;14537;47.788;11.858;2023-04-03T04:41:06;1.20;99.90
26990;DHT22;14537;47.788;11.858;2023-04-03T04:43:32;1.20;99.90
26990;DHT22;14537;47.788;11.858;2023-04-03T04:46:02;1.20;99.90
26990;DHT22;14537;47.788;11.858;2023-04-03T04:48:28;1.20;99.90
26990;DHT22;14537;47.788;11.858;2023-04-03T04:50:54;1.20;99.90
26990;DHT22;14537;47.788;11.858;2023-04-03T04:53:20;1.20;99.90
26990;DHT22;14537;47.788;11.858;2023-04-03T04:55:45;1.20;99.90
26990;DHT22;14537;47.788;11.858;2023-04-03T04:58:11;1.30;99.90
26990;DHT22;14537;47.788;11.858;2023-04-03T05:00:36;1.30;99.90
26990;DHT22;14537;47.788;11.858;2023-04-03T05:03:02;1.30;99.90
26990;DHT22;14537;47.788;11.858;2023-04-03T05:05:28;1.30;99.90
26990;DHT22;14537;47.788;11.858;2023-04-03T05:07:53;1.20;99.90
26990;DHT22;14537;47.788;11.858;2023-04-03T05:10:19;1.30;99.90
26990;DHT22;14537;47.788;11.858;2023-04-03T05:12:45;1.30;99.90
26990;DHT22;14537;47.788;11.858;2023-04-03T05:15:11;1.30;99.90
26990;DHT22;14537;47.788;11.858;2023-04-03T05:17:37;1.20;99.90
26990;DHT22;14537;47.788;11.858;2023-04-03T05:20:03;1.20;99.90
26990;DHT22;14537;47.788;11.858;2023-04-03T05:22:30;1.20;99.90
26990;DHT22;14537;47.788;11.858;2023-04-03T05:24:55;1.20;99.90
26990;DHT22;14537;47.788;11.858;2023-04-03T05:27:22;1.30;99.90
26990;DHT22;14537;47.788;11.858;2023-04-03T05:29:49;1.30;99.90
26990;DHT22;14537;47.788;11.858;2023-04-03T05:32:15;1.30;99.90
26990;DHT22;14537;47.788;11.858;2023-04-03T05:34:41;1.30;99.90
26990;DHT22;14537;47.788;11.858;2023-04-03T05:37:06;1.40;99.90
26990;DHT22;14537;47.788;11.858;2023-04-03T05:39:32;1.40;99.90
26990;DHT22;14537;47.788;11.858;2023-04-03T05:41:59;1.40;99.90
26990;DHT22;14537;47.788;11.858;2023-04-03T05:44:25;1.40;99.90
26990;DHT22;14537;47.788;11.858;2023-04-03T05:46:50;1.40;99.90
26990;DHT22;14537;47.788;11.858;2023-04-03T05:49:16;1.40;99.90
26990;DHT22;14537;47.788;11.858;2023-04-03T05:51:42;1.40;99.90
26990;DHT22;14537;47.788;11.858;2023-04-03T05:54:43;1.40;99.90
26990;DHT22;14537;47.788;11.858;2023-04-03T05:57:02;1.40;99.90
26990;DHT22;14537;47.788;11.858;2023-04-03T05:59:28;1.40;99.90
26990;DHT22;14537;47.788;11.858;2023-04-03T06:01:53;1.50;99.90
26990;DHT22;14537;47.788;11.858;2023-04-03T06:04:19;1.40;99.90
26990;DHT22;14537;47.788;11.858;2023-04-03T06:09:14;1.50;99.90
26990;DHT22;14537;47.788;11.858;2023-04-03T06:11:40;1.50;99.90
26990;DHT22;14537;47.788;11.858;2023-04-03T06:14:07;1.50;99.90
26990;DHT22;14537;47.788;11.858;2023-04-03T06:16:33;1.40;99.90
26990;DHT22;14537;47.788;11.858;2023-04-03T06:18:59;1.40;99.90
26990;DHT22;14537;47.788;11.858;2023-04-03T06:21:25;1.50;99.90
26990;DHT22;14537;47.788;11.858;2023-04-03T06:23:51;1.50;99.90
26990;DHT22;14537;47.788;11.858;2023-04-03T06:26:17;1.20;99.90
26990;DHT22;14537;47.788;11.858;2023-04-03T06:28:42;1.30;99.90
26990;DHT22;14537;47.788;11.858;2023-04-03T06:31:08;1.30;99.90
26990;DHT22;14537;47.788;11.858;2023-04-03T06:33:34;1.40;99.90
26990;DHT22;14537;47.788;11.858;2023-04-03T06:36:03;1.40;99.90
26990;DHT22;14537;47.788;11.858;2023-04-03T06:38:30;1.60;99.90
26990;DHT22;14537;47.788;11.858;2023-04-03T06:40:55;1.60;99.90
26990;DHT22;14537;47.788;11.858;2023-04-03T06:43:22;1.60;99.90
26990;DHT22;14537;47.788;11.858;2023-04-03T06:45:48;1.60;99.90
26990;DHT22;14537;47.788;11.858;2023-04-03T06:48:13;1.60;99.90
26990;DHT22;14537;47.788;11.858;2023-04-03T06:50:39;1.60;99.90
26990;DHT22;14537;47.788;11.858;2023-04-03T06:53:05;1.70;99.90
26990;DHT22;14537;47.788;11.858;2023-04-03T06:55:32;1.80;99.90
26990;DHT22;14537;47.788;11.858;2023-04-03T06:57:58;1.70;99.90
26990;DHT22;14537;47.788;11.858;2023-04-03T07:00:23;1.60;99.90
26990;DHT22;14537;47.788;11.858;2023-04-03T07:02:50;1.70;99.90
26990;DHT22;14537;47.788;11.858;2023-04-03T07:05:17;1.70;99.90
26990;DHT22;14537;47.788;11.858;2023-04-03T07:07:43;1.70;99.90
26990;DHT22;14537;47.788;11.858;2023-04-03T07:10:09;1.70;99.90
26990;DHT22;14537;47.788;11.858;2023-04-03T07:12:35;1.70;99.90
26990;DHT22;14537;47.788;11.858;2023-04-03T07:15:01;1.80;99.90
26990;DHT22;14537;47.788;11.858;2023-04-03T07:17:28;1.80;99.90
26990;DHT22;14537;47.788;11.858;2023-04-03T07:19:53;1.80;99.90
26990;DHT22;14537;47.788;11.858;2023-04-03T07:22:19;1.70;99.90
26990;DHT22;14537;47.788;11.858;2023-04-03T07:24:45;1.80;99.90
26990;DHT22;14537;47.788;11.858;2023-04-03T07:27:11;1.80;99.90
26990;DHT22;14537;47.788;11.858;2023-04-03T07:29:38;1.90;99.90
26990;DHT22;14537;47.788;11.858;2023-04-03T07:32:05;1.80;99.90
26990;DHT22;14537;47.788;11.858;2023-04-03T07:34:32;1.90;99.90
26990;DHT22;14537;47.788;11.858;2023-04-03T07:36:58;1.90;99.90
26990;DHT22;14537;47.788;11.858;2023-04-03T07:39:24;2.00;99.90
26990;DHT22;14537;47.788;11.858;2023-04-03T07:41:50;2.00;99.90
26990;DHT22;14537;47.788;11.858;2023-04-03T07:44:17;2.00;99.90
26990;DHT22;14537;47.788;11.858;2023-04-03T07:46:42;2.10;99.90
26990;DHT22;14537;47.788;11.858;2023-04-03T07:49:08;2.10;99.90
26990;DHT22;14537;47.788;11.858;2023-04-03T07:51:34;2.10;99.90
26990;DHT22;14537;47.788;11.858;2023-04-03T07:54:00;2.20;99.90
26990;DHT22;14537;47.788;11.858;2023-04-03T07:56:26;2.30;99.90
26990;DHT22;14537;47.788;11.858;2023-04-03T07:58:51;2.30;99.90
26990;DHT22;14537;47.788;11.858;2023-04-03T08:01:17;2.50;99.90
26990;DHT22;14537;47.788;11.858;2023-04-03T08:03:43;2.50;99.90
26990;DHT22;14537;47.788;11.858;2023-04-03T08:06:09;2.60;99.90
26990;DHT22;14537;47.788;11.858;2023-04-03T08:08:36;2.60;99.90
26990;DHT22;14537;47.788;11.858;2023-04-03T08:11:02;2.70;99.90
26990;DHT22;14537;47.788;11.858;2023-04-03T08:13:29;2.70;99.90
26990;DHT22;14537;47.788;11.858;2023-04-03T08:15:56;2.70;99.90
26990;DHT22;14537;47.788;11.858;2023-04-03T08:18:23;2.70;99.90
26990;DHT22;14537;47.788;11.858;2023-04-03T08:20:50;2.70;99.90
26990;DHT22;14537;47.788;11.858;2023-04-03T08:23:17;2.60;99.90
26990;DHT22;14537;47.788;11.858;2023-04-03T08:25:43;2.50;99.90
26990;DHT22;14537;47.788;11.858;2023-04-03T08:28:10;2.50;99.90
26990;DHT22;14537;47.788;11.858;2023-04-03T08:30:39;2.50;99.90
26990;DHT22;14537;47.788;11.858;2023-04-03T08:33:05;2.50;99.90
26990;DHT22;14537;47.788;11.858;2023-04-03T08:35:31;2.50;99.90
26990;DHT22;14537;47.788;11.858;2023-04-03T08:37:57;2.50;99.90
26990;DHT22;14537;47.788;11.858;2023-04-03T08:40:23;2.70;99.90
26990;DHT22;14537;47.788;11.858;2023-04-03T08:46:05;2.80;99.90
26990;DHT22;14537;47.788;11.858;2023-04-03T08:48:33;2.80;99.90
26990;DHT22;14537;47.788;11.858;2023-04-03T08:51:03;2.90;99.90
26990;DHT22;14537;47.788;11.858;2023-04-03T08:53:32;2.80;99.90
26990;DHT22;14537;47.788;11.858;2023-04-03T08:56:04;2.90;99.90
26990;DHT22;14537;47.788;11.858;2023-04-03T08:58:45;2.80;99.90
26990;DHT22;14537;47.788;11.858;2023-04-03T09:01:23;2.80;99.90
26990;DHT22;14537;47.788;11.858;2023-04-03T09:03:50;2.80;99.90
26990;DHT22;14537;47.788;11.858;2023-04-03T09:06:22;2.70;99.90
26990;DHT22;14537;47.788;11.858;2023-04-03T09:14:36;2.70;99.90
26990;DHT22;14537;47.788;11.858;2023-04-03T09:17:09;2.90;99.90
26990;DHT22;14537;47.788;11.858;2023-04-03T09:22:32;2.90;99.90
26990;DHT22;14537;47.788;11.858;2023-04-03T09:27:24;3.10;99.90
26990;DHT22;14537;47.788;11.858;2023-04-03T09:29:53;3.10;99.90
26990;DHT22;14537;47.788;11.858;2023-04-03T09:32:27;3.20;99.90
26990;DHT22;14537;47.788;11.858;2023-04-03T09:34:56;3.30;99.90
26990;DHT22;14537;47.788;11.858;2023-04-03T09:37:43;3.40;99.90
26990;DHT22;14537;47.788;11.858;2023-04-03T09:40:33;3.50;99.90
26990;DHT22;14537;47.788;11.858;2023-04-03T09:45:52;3.40;99.90
26990;DHT22;14537;47.788;11.858;2023-04-03T09:48:20;3.50;99.90
26990;DHT22;14537;47.788;11.858;2023-04-03T09:50:55;3.70;99.90
26990;DHT22;14537;47.788;11.858;2023-04-03T09:56:04;3.70;99.90
26990;DHT22;14537;47.788;11.858;2023-04-03T09:58:33;3.80;99.90
26990;DHT22;14537;47.788;11.858;2023-04-03T10:01:03;4.00;99.90
26990;DHT22;14537;47.788;11.858;2023-04-03T10:03:32;4.00;99.90
26990;DHT22;14537;47.788;11.858;2023-04-03T10:05:58;4.00;99.90
26990;DHT22;14537;47.788;11.858;2023-04-03T10:08:32;3.70;99.90
26990;DHT22;14537;47.788;11.858;2023-04-03T10:11:17;3.80;99.90
26990;DHT22;14537;47.788;11.858;2023-04-03T10:14:15;3.90;99.90
26990;DHT22;14537;47.788;11.858;2023-04-03T10:16:57;4.00;99.90
26990;DHT22;14537;47.788;11.858;2023-04-03T10:19:46;4.00;99.90
26990;DHT22;14537;47.788;11.858;2023-04-03T10:25:14;4.00;99.90
26990;DHT22;14537;47.788;11.858;2023-04-03T10:35:52;4.00;99.90
26990;DHT22;14537;47.788;11.858;2023-04-03T10:41:04;4.10;99.90
26990;DHT22;14537;47.788;11.858;2023-04-03T10:46:35;4.20;99.90
26990;DHT22;14537;47.788;11.858;2023-04-03T10:49:47;4.20;99.90
26990;DHT22;14537;47.788;11.858;2023-04-03T10:52:39;4.20;99.90
26990;DHT22;14537;47.788;11.858;2023-04-03T10:57:53;4.40;99.90
26990;DHT22;14537;47.788;11.858;2023-04-03T11:00:26;4.40;99.90
26990;DHT22;14537;47.788;11.858;2023-04-03T11:03:01;4.50;99.90
26990;DHT22;14537;47.788;11.858;2023-04-03T11:08:26;4.50;99.90
26990;DHT22;14537;47.788;11.858;2023-04-03T11:10:55;4.60;99.90
26990;DHT22;14537;47.788;11.858;2023-04-03T11:13:39;4.30;99.90
26990;DHT22;14537;47.788;11.858;2023-04-03T11:16:06;4.20;99.90
26990;DHT22;14537;47.788;11.858;2023-04-03T11:18:56;4.10;99.90
26990;DHT22;14537;47.788;11.858;2023-04-03T11:21:56;4.00;99.90
26990;DHT22;14537;47.788;11.858;2023-04-03T11:24:25;3.90;99.90
26990;DHT22;14537;47.788;11.858;2023-04-03T11:26:54;3.90;99.90
26990;DHT22;14537;47.788;11.858;2023-04-03T11:29:27;3.90;99.90
26990;DHT22;14537;47.788;11.858;2023-04-03T11:32:29;4.10;99.90
26990;DHT22;14537;47.788;11.858;2023-04-03T11:35:01;4.10;99.90
26990;DHT22;14537;47.788;11.858;2023-04-03T11:37:40;4.20;99.90
26990;DHT22;14537;47.788;11.858;2023-04-03T11:42:42;4.30;99.90
26990;DHT22;14537;47.788;11.858;2023-04-03T11:48:01;4.30;99.90
26990;DHT22;14537;47.788;11.858;2023-04-03T11:58:27;4.40;99.90
26990;DHT22;14537;47.788;11.858;2023-04-03T12:13:37;4.20;99.90
26990;DHT22;14537;47.788;11.858;2023-04-03T12:16:27;4.20;99.90
26990;DHT22;14537;47.788;11.858;2023-04-03T12:26:50;3.90;99.90
26990;DHT22;14537;47.788;11.858;2023-04-03T12:35:04;3.60;99.90
26990;DHT22;14537;47.788;11.858;2023-04-03T12:43:35;3.30;99.90
26990;DHT22;14537;47.788;11.858;2023-04-03T12:51:14;3.00;99.90
26990;DHT22;14537;47.788;11.858;2023-04-03T12:53:41;3.00;99.90
26990;DHT22;14537;47.788;11.858;2023-04-03T12:58:48;2.90;99.90
26990;DHT22;14537;47.788;11.858;2023-04-03T13:01:16;3.10;99.90
26990;DHT22;14537;47.788;11.858;2023-04-03T13:03:49;3.00;99.90
26990;DHT22;14537;47.788;11.858;2023-04-03T13:08:53;3.20;99.90
26990;DHT22;14537;47.788;11.858;2023-04-03T13:11:20;3.10;99.90
26990;DHT22;14537;47.788;11.858;2023-04-03T13:14:01;3.20;99.90
26990;DHT22;14537;47.788;11.858;2023-04-03T13:16:28;3.30;99.90
26990;DHT22;14537;47.788;11.858;2023-04-03T13:18:55;3.30;99.90
26990;DHT22;14537;47.788;11.858;2023-04-03T13:21:32;3.30;99.90
26990;DHT22;14537;47.788;11.858;2023-04-03T13:24:01;3.40;99.90
26990;DHT22;14537;47.788;11.858;2023-04-03T13:26:30;3.40;99.90
26990;DHT22;14537;47.788;11.858;2023-04-03T13:29:01;3.40;99.90
26990;DHT22;14537;47.788;11.858;2023-04-03T13:31:32;3.70;99.90
26990;DHT22;14537;47.788;11.858;2023-04-03T13:36:42;3.90;99.90
26990;DHT22;14537;47.788;11.858;2023-04-03T13:41:42;4.10;99.90
26990;DHT22;14537;47.788;11.858;2023-04-03T13:44:34;4.10;99.90
26990;DHT22;14537;47.788;11.858;2023-04-03T13:47:21;4.20;99.90
26990;DHT22;14537;47.788;11.858;2023-04-03T13:53:11;4.20;99.90
26990;DHT22;14537;47.788;11.858;2023-04-03T13:55:50;4.10;99.90
26990;DHT22;14537;47.788;11.858;2023-04-03T13:58:22;4.20;99.90
26990;DHT22;14537;47.788;11.858;2023-04-03T14:06:06;4.30;99.90
26990;DHT22;14537;47.788;11.858;2023-04-03T14:08:33;4.20;99.90
26990;DHT22;14537;47.788;11.858;2023-04-03T14:10:59;4.10;99.90
26990;DHT22;14537;47.788;11.858;2023-04-03T14:13:25;4.20;99.90
26990;DHT22;14537;47.788;11.858;2023-04-03T14:15:51;4.20;99.90
26990;DHT22;14537;47.788;11.858;2023-04-03T14:18:19;4.10;99.90
26990;DHT22;14537;47.788;11.858;2023-04-03T14:20:47;4.10;99.90
26990;DHT22;14537;47.788;11.858;2023-04-03T14:23:13;4.20;99.90
26990;DHT22;14537;47.788;11.858;2023-04-03T14:25:39;4.30;99.90
26990;DHT22;14537;47.788;11.858;2023-04-03T14:28:18;4.20;99.90
26990;DHT22;14537;47.788;11.858;2023-04-03T14:30:46;4.20;99.90
26990;DHT22;14537;47.788;11.858;2023-04-03T14:33:15;4.20;99.90
26990;DHT22;14537;47.788;11.858;2023-04-03T14:35:41;4.10;99.90
26990;DHT22;14537;47.788;11.858;2023-04-03T14:38:26;3.90;99.90
26990;DHT22;14537;47.788;11.858;2023-04-03T14:40:53;3.70;99.90
26990;DHT22;14537;47.788;11.858;2023-04-03T14:43:20;3.60;99.90
26990;DHT22;14537;47.788;11.858;2023-04-03T14:45:47;3.40;99.90
26990;DHT22;14537;47.788;11.858;2023-04-03T14:48:19;3.20;99.90
26990;DHT22;14537;47.788;11.858;2023-04-03T14:50:45;3.20;99.90
26990;DHT22;14537;47.788;11.858;2023-04-03T14:53:12;3.10;99.90
26990;DHT22;14537;47.788;11.858;2023-04-03T14:55:46;3.30;99.90
26990;DHT22;14537;47.788;11.858;2023-04-03T14:58:17;3.40;99.90
26990;DHT22;14537;47.788;11.858;2023-04-03T15:00:43;3.70;99.90
26990;DHT22;14537;47.788;11.858;2023-04-03T15:03:20;3.80;99.90
26990;DHT22;14537;47.788;11.858;2023-04-03T15:05:47;3.80;99.90
26990;DHT22;14537;47.788;11.858;2023-04-03T15:08:22;3.90;99.90
26990;DHT22;14537;47.788;11.858;2023-04-03T15:10:50;3.90;99.90
26990;DHT22;14537;47.788;11.858;2023-04-03T15:13:18;4.00;99.90
26990;DHT22;14537;47.788;11.858;2023-04-03T15:15:44;4.00;99.90
26990;DHT22;14537;47.788;11.858;2023-04-03T15:18:37;4.00;99.90
26990;DHT22;14537;47.788;11.858;2023-04-03T15:21:03;4.00;99.90
26990;DHT22;14537;47.788;11.858;2023-04-03T15:23:29;4.00;99.90
26990;DHT22;14537;47.788;11.858;2023-04-03T15:25:55;3.90;99.90
26990;DHT22;14537;47.788;11.858;2023-04-03T15:28:27;3.90;99.90
26990;DHT22;14537;47.788;11.858;2023-04-03T15:30:53;3.80;99.90
26990;DHT22;14537;47.788;11.858;2023-04-03T15:33:19;3.70;99.90
26990;DHT22;14537;47.788;11.858;2023-04-03T15:35:45;3.70;99.90
26990;DHT22;14537;47.788;11.858;2023-04-03T15:38:10;3.50;99.90
26990;DHT22;14537;47.788;11.858;2023-04-03T15:40:36;3.40;99.90
26990;DHT22;14537;47.788;11.858;2023-04-03T15:43:02;3.50;99.90
26990;DHT22;14537;47.788;11.858;2023-04-03T15:45:29;3.40;99.90
26990;DHT22;14537;47.788;11.858;2023-04-03T15:47:55;3.50;99.90
26990;DHT22;14537;47.788;11.858;2023-04-03T15:50:21;3.60;99.90
26990;DHT22;14537;47.788;11.858;2023-04-03T15:52:50;3.60;99.90
26990;DHT22;14537;47.788;11.858;2023-04-03T15:55:26;3.60;99.90
26990;DHT22;14537;47.788;11.858;2023-04-03T15:57:53;3.40;99.90
26990;DHT22;14537;47.788;11.858;2023-04-03T16:00:19;3.10;99.90
26990;DHT22;14537;47.788;11.858;2023-04-03T16:02:46;2.80;99.90
26990;DHT22;14537;47.788;11.858;2023-04-03T16:05:14;3.00;99.90
26990;DHT22;14537;47.788;11.858;2023-04-03T16:07:41;3.00;99.90
26990;DHT22;14537;47.788;11.858;2023-04-03T16:10:09;3.10;99.90
26990;DHT22;14537;47.788;11.858;2023-04-03T16:12:35;3.10;99.90
26990;DHT22;14537;47.788;11.858;2023-04-03T16:15:02;3.20;99.90
26990;DHT22;14537;47.788;11.858;2023-04-03T16:17:28;3.20;99.90
26990;DHT22;14537;47.788;11.858;2023-04-03T16:19:55;3.20;99.90
26990;DHT22;14537;47.788;11.858;2023-04-03T16:22:22;3.20;99.90
26990;DHT22;14537;47.788;11.858;2023-04-03T16:24:48;3.30;99.90
26990;DHT22;14537;47.788;11.858;2023-04-03T16:27:15;3.30;99.90
26990;DHT22;14537;47.788;11.858;2023-04-03T16:29:40;3.30;99.90
26990;DHT22;14537;47.788;11.858;2023-04-03T16:32:06;3.30;99.90
26990;DHT22;14537;47.788;11.858;2023-04-03T16:34:32;3.30;99.90
26990;DHT22;14537;47.788;11.858;2023-04-03T16:36:58;3.40;99.90
26990;DHT22;14537;47.788;11.858;2023-04-03T16:39:24;3.40;99.90
26990;DHT22;14537;47.788;11.858;2023-04-03T16:41:49;3.40;99.90
26990;DHT22;14537;47.788;11.858;2023-04-03T16:44:15;3.40;99.90
26990;DHT22;14537;47.788;11.858;2023-04-03T16:46:41;3.30;99.90
26990;DHT22;14537;47.788;11.858;2023-04-03T16:49:06;3.30;99.90
26990;DHT22;14537;47.788;11.858;2023-04-03T16:51:32;3.30;99.90
26990;DHT22;14537;47.788;11.858;2023-04-03T16:53:58;3.30;99.90
26990;DHT22;14537;47.788;11.858;2023-04-03T16:56:24;3.20;99.90
26990;DHT22;14537;47.788;11.858;2023-04-03T16:58:52;3.10;99.90
26990;DHT22;14537;47.788;11.858;2023-04-03T17:01:21;3.10;99.90
26990;DHT22;14537;47.788;11.858;2023-04-03T17:03:47;3.10;99.90
26990;DHT22;14537;47.788;11.858;2023-04-03T17:06:17;3.10;99.90
26990;DHT22;14537;47.788;11.858;2023-04-03T17:08:45;3.10;99.90
26990;DHT22;14537;47.788;11.858;2023-04-03T17:11:11;3.00;99.90
26990;DHT22;14537;47.788;11.858;2023-04-03T17:13:37;3.00;99.90
26990;DHT22;14537;47.788;11.858;2023-04-03T17:16:04;3.00;99.90
26990;DHT22;14537;47.788;11.858;2023-04-03T17:18:31;2.90;99.90
26990;DHT22;14537;47.788;11.858;2023-04-03T17:20:57;2.70;99.90
26990;DHT22;14537;47.788;11.858;2023-04-03T17:23:25;2.70;99.90
26990;DHT22;14537;47.788;11.858;2023-04-03T17:25:51;2.70;99.90
26990;DHT22;14537;47.788;11.858;2023-04-03T17:28:16;2.70;99.90
26990;DHT22;14537;47.788;11.858;2023-04-03T17:30:42;2.60;99.90
26990;DHT22;14537;47.788;11.858;2023-04-03T17:33:08;2.50;99.90
26990;DHT22;14537;47.788;11.858;2023-04-03T17:35:34;2.50;99.90
26990;DHT22;14537;47.788;11.858;2023-04-03T17:38:00;2.40;99.90